Time;durP1;ratioP1;P1;durP2;ratioP2;P2;SDS_P1;SDS_P2;PMS_P1;PMS_P2;Temp;Humidity;BMP_temperature;BMP_pressure;BME280_temperature;BME280_humidity;BME280_pressure;Samples;Min_cycle;Max_cycle;Signal;HPM_P1;HPM_P2
2023/09/09 00:02:21;;;;;;;5.90;2.77;;;;;;;17.08;99.85;101341.38;5080144;28;20484;-71
2023/09/09 00:04:47;;;;;;;4.93;2.80;;;;;;;17.04;99.97;101343.16;5081550;28;20441;-71
2023/09/09 00:07:14;;;;;;;5.30;2.63;;;;;;;17.01;100.00;101350.09;5082189;28;20519;-71
2023/09/09 00:09:41;;;;;;;6.87;3.60;;;;;;;16.99;100.00;101344.13;5082528;28;20456;-72
2023/09/09 00:12:09;;;;;;;6.43;3.50;;;;;;;16.94;100.00;101344.31;5081762;28;20448;-69
2023/09/09 00:14:36;;;;;;;6.40;2.80;;;;;;;16.94;100.00;101338.03;5081998;28;20477;-71
2023/09/09 00:17:03;;;;;;;7.63;3.90;;;;;;;16.92;100.00;101341.09;5082158;28;20990;-71
2023/09/09 00:19:34;;;;;;;4.97;3.00;;;;;;;16.89;100.00;101337.06;5082366;28;20449;-71
2023/09/09 00:22:01;;;;;;;4.60;2.80;;;;;;;16.93;100.00;101341.91;5082802;28;20483;-71
2023/09/09 00:24:28;;;;;;;6.07;3.33;;;;;;;16.85;100.00;101338.84;5082637;28;20437;-71
2023/09/09 00:26:55;;;;;;;7.23;3.80;;;;;;;16.83;100.00;101343.06;5081253;28;20529;-71
2023/09/09 00:29:23;;;;;;;4.80;2.90;;;;;;;16.81;100.00;101340.63;5082620;28;20456;-71
2023/09/09 00:31:50;;;;;;;5.30;3.20;;;;;;;16.77;100.00;101339.66;5082234;28;20492;-71
2023/09/09 00:34:17;;;;;;;5.50;3.13;;;;;;;16.78;100.00;101340.50;5081612;28;20464;-71
2023/09/09 00:36:43;;;;;;;6.57;3.43;;;;;;;16.78;100.00;101335.81;5081749;28;20553;-71
2023/09/09 00:39:10;;;;;;;7.50;3.67;;;;;;;16.74;100.00;101332.13;5081524;28;20532;-71
2023/09/09 00:41:37;;;;;;;5.87;3.07;;;;;;;16.76;100.00;101338.06;5081069;28;20488;-71
2023/09/09 00:44:04;;;;;;;4.60;2.53;;;;;;;16.75;100.00;101330.19;5082308;28;20467;-71
2023/09/09 00:46:32;;;;;;;5.37;3.27;;;;;;;16.74;100.00;101326.66;5082005;28;20457;-71
2023/09/09 00:49:00;;;;;;;5.60;3.37;;;;;;;16.71;100.00;101332.72;5082534;28;20863;-71
2023/09/09 00:51:27;;;;;;;7.80;3.80;;;;;;;16.70;100.00;101322.94;5078436;28;20477;-71
2023/09/09 00:53:53;;;;;;;8.73;4.30;;;;;;;16.67;100.00;101326.31;5078336;28;20456;-71
2023/09/09 00:56:20;;;;;;;7.17;4.10;;;;;;;16.68;100.00;101330.63;5078374;28;20507;-71
2023/09/09 00:58:47;;;;;;;5.77;3.60;;;;;;;16.69;100.00;101321.31;5077770;28;20484;-71
2023/09/09 01:01:13;;;;;;;8.07;4.03;;;;;;;16.63;100.00;101330.81;5079100;28;20451;-71
2023/09/09 01:03:41;;;;;;;5.93;3.23;;;;;;;16.59;100.00;101330.66;5078809;28;20528;-71
2023/09/09 01:06:08;;;;;;;7.27;3.57;;;;;;;16.56;100.00;101327.78;5080171;28;20500;-71
2023/09/09 01:08:35;;;;;;;6.57;3.90;;;;;;;16.56;100.00;101328.56;5080905;28;20535;-71
2023/09/09 01:11:02;;;;;;;7.50;3.90;;;;;;;16.52;100.00;101318.59;5081135;28;20481;-71
2023/09/09 01:13:29;;;;;;;6.77;3.90;;;;;;;16.52;100.00;101321.34;5081280;28;20941;-71
2023/09/09 01:15:56;;;;;;;6.53;3.23;;;;;;;16.48;100.00;101331.31;5081318;28;20457;-71
2023/09/09 01:18:23;;;;;;;6.20;3.40;;;;;;;16.51;100.00;101327.91;5080129;28;20532;-71
2023/09/09 01:20:59;;;;;;;6.37;3.33;;;;;;;16.53;100.00;101331.16;5082209;28;20517;-71
2023/09/09 01:23:27;;;;;;;6.13;3.23;;;;;;;16.52;100.00;101321.34;5078920;28;20427;-72
2023/09/09 01:25:53;;;;;;;5.17;2.83;;;;;;;16.55;100.00;101321.47;5080864;28;20491;-72
2023/09/09 01:28:22;;;;;;;7.77;3.63;;;;;;;16.53;100.00;101320.22;5082381;28;20477;-71
2023/09/09 01:30:48;;;;;;;7.33;4.13;;;;;;;16.49;100.00;101317.31;5083566;28;20477;-71
2023/09/09 01:33:15;;;;;;;5.20;3.53;;;;;;;16.48;100.00;101323.13;5083481;28;20436;-71
2023/09/09 01:35:41;;;;;;;7.80;3.30;;;;;;;16.44;100.00;101324.88;5083632;28;20541;-71
2023/09/09 01:38:08;;;;;;;6.60;3.80;;;;;;;16.39;100.00;101317.66;5083194;28;20469;-72
2023/09/09 01:40:36;;;;;;;6.13;3.40;;;;;;;16.39;100.00;101323.91;5084090;28;20528;-72
2023/09/09 01:43:03;;;;;;;7.17;3.93;;;;;;;16.38;100.00;101321.50;5083744;28;20430;-71
2023/09/09 01:45:30;;;;;;;6.10;3.87;;;;;;;16.40;100.00;101311.03;5084406;28;20499;-72
2023/09/09 01:47:56;;;;;;;6.03;3.17;;;;;;;16.38;100.00;101314.09;5084635;28;20842;-72
2023/09/09 01:50:23;;;;;;;6.10;3.27;;;;;;;16.39;100.00;101312.97;5083495;28;20564;-72
2023/09/09 01:52:50;;;;;;;5.67;3.80;;;;;;;16.39;100.00;101307.50;5083936;28;20445;-72
2023/09/09 01:55:17;;;;;;;7.03;3.70;;;;;;;16.35;100.00;101303.00;5084220;28;20831;-72
2023/09/09 01:57:46;;;;;;;5.37;3.00;;;;;;;16.33;100.00;101306.03;5084864;28;20865;-71
2023/09/09 02:00:13;;;;;;;5.70;3.13;;;;;;;16.30;100.00;101300.44;5084579;28;20461;-71
2023/09/09 02:02:40;;;;;;;5.30;3.40;;;;;;;16.31;100.00;101297.38;5084790;28;20429;-71
2023/09/09 02:05:07;;;;;;;7.20;3.73;;;;;;;16.31;100.00;101302.03;5084297;28;20430;-72
2023/09/09 02:07:34;;;;;;;5.73;3.70;;;;;;;16.30;100.00;101300.44;5083714;28;20515;-72
2023/09/09 02:10:00;;;;;;;5.90;3.80;;;;;;;16.30;100.00;101298.50;5084074;28;20437;-72
2023/09/09 02:12:28;;;;;;;6.40;3.33;;;;;;;16.26;100.00;101302.22;5085170;28;20901;-72
2023/09/09 02:14:56;;;;;;;7.67;3.97;;;;;;;16.23;100.00;101300.91;5083561;28;20532;-71
2023/09/09 02:17:23;;;;;;;6.27;2.90;;;;;;;16.21;100.00;101297.72;5084632;28;20499;-72
2023/09/09 02:19:55;;;;;;;6.23;3.73;;;;;;;16.21;100.00;101299.63;5084101;28;20468;-72
2023/09/09 02:22:22;;;;;;;10.00;3.77;;;;;;;16.21;100.00;101294.97;5084985;28;20454;-72
2023/09/09 02:24:55;;;;;;;6.37;3.43;;;;;;;16.18;100.00;101303.81;5083920;28;20433;-72
2023/09/09 02:27:21;;;;;;;5.53;2.83;;;;;;;16.17;100.00;101298.66;5085154;28;20468;-71
2023/09/09 02:29:49;;;;;;;7.40;3.60;;;;;;;16.10;100.00;101299.94;5084905;28;20952;-72
2023/09/09 02:32:17;;;;;;;8.13;4.33;;;;;;;16.10;100.00;101293.66;5084884;28;20825;-71
2023/09/09 02:34:44;;;;;;;6.30;3.23;;;;;;;16.10;100.00;101293.66;5081751;28;20525;-71
2023/09/09 02:37:13;;;;;;;5.67;3.10;;;;;;;16.10;100.00;101296.41;5081863;28;20485;-71
2023/09/09 02:39:41;;;;;;;7.27;2.77;;;;;;;16.07;100.00;101291.56;5082846;28;20473;-71
2023/09/09 02:42:08;;;;;;;7.33;3.60;;;;;;;16.03;100.00;101296.09;5083661;28;20436;-71
2023/09/09 02:44:35;;;;;;;10.20;4.23;;;;;;;16.07;100.00;101294.28;5082499;28;20483;-71
2023/09/09 02:47:01;;;;;;;6.93;3.70;;;;;;;16.03;100.00;101288.69;5078151;28;20515;-71
2023/09/09 02:49:29;;;;;;;4.53;2.63;;;;;;;16.01;100.00;101282.72;5080093;28;20937;-71
2023/09/09 02:51:56;;;;;;;7.10;3.23;;;;;;;16.00;100.00;101294.78;5080207;28;20486;-71
2023/09/09 02:54:22;;;;;;;7.07;3.67;;;;;;;16.00;100.00;101281.13;5080728;28;20484;-71
2023/09/09 02:56:49;;;;;;;4.23;2.63;;;;;;;15.96;100.00;101276.63;5081200;28;20541;-71
2023/09/09 02:59:16;;;;;;;5.67;3.30;;;;;;;15.94;100.00;101285.16;5081668;28;20866;-71
2023/09/09 03:01:43;;;;;;;4.67;2.57;;;;;;;15.95;100.00;101284.03;5082258;28;20476;-71
2023/09/09 03:04:10;;;;;;;5.60;2.90;;;;;;;15.91;100.00;101279.50;5081096;28;20433;-71
2023/09/09 03:06:37;;;;;;;5.80;3.63;;;;;;;15.85;100.00;101290.59;5081336;28;20548;-71
2023/09/09 03:09:04;;;;;;;7.73;3.87;;;;;;;15.82;100.00;101284.97;5081739;28;20488;-71
2023/09/09 03:11:31;;;;;;;5.13;2.93;;;;;;;15.83;100.00;101284.63;5082289;28;20481;-71
2023/09/09 03:13:58;;;;;;;6.23;3.90;;;;;;;15.78;100.00;101282.06;5081528;28;20811;-71
2023/09/09 03:16:24;;;;;;;7.30;3.90;;;;;;;15.79;100.00;101278.19;5081567;28;20483;-71
2023/09/09 03:18:51;;;;;;;5.70;3.33;;;;;;;15.77;100.00;101280.47;5081370;28;20445;-71
2023/09/09 03:21:18;;;;;;;11.27;4.57;;;;;;;15.75;100.00;101281.88;5081601;28;20881;-71
2023/09/09 03:23:46;;;;;;;7.03;3.70;;;;;;;15.77;100.00;101285.94;5081614;28;20510;-71
2023/09/09 03:26:18;;;;;;;7.53;3.83;;;;;;;15.70;100.00;101290.25;5082316;28;20476;-71
2023/09/09 03:28:45;;;;;;;6.67;2.93;;;;;;;15.68;100.00;101285.09;5081493;28;20449;-71
2023/09/09 03:31:12;;;;;;;5.57;3.20;;;;;;;15.67;100.00;101286.22;5082584;28;20481;-71
2023/09/09 03:33:39;;;;;;;6.07;3.10;;;;;;;15.70;100.00;101292.97;5082450;28;20529;-71
2023/09/09 03:36:06;;;;;;;5.87;3.17;;;;;;;15.64;100.00;101284.94;5082179;28;20465;-71
2023/09/09 03:38:33;;;;;;;5.80;3.60;;;;;;;15.64;100.00;101293.13;5082044;28;20456;-71
2023/09/09 03:41:01;;;;;;;6.30;2.90;;;;;;;15.63;100.00;101299.69;5082844;28;20460;-71
2023/09/09 03:43:27;;;;;;;5.80;3.47;;;;;;;15.65;100.00;101288.47;5082217;28;20442;-71
2023/09/09 03:45:54;;;;;;;5.73;3.40;;;;;;;15.65;100.00;101293.94;5082493;28;20594;-71
2023/09/09 03:48:21;;;;;;;6.67;4.17;;;;;;;15.61;100.00;101287.47;5083475;28;20461;-71
2023/09/09 03:50:48;;;;;;;5.83;3.33;;;;;;;15.64;100.00;101289.59;5084251;28;20446;-71
2023/09/09 03:53:15;;;;;;;4.23;2.67;;;;;;;15.63;100.00;101286.03;5083099;28;20441;-71
2023/09/09 03:55:41;;;;;;;6.63;3.90;;;;;;;15.59;100.00;101292.44;5083497;28;20453;-71
2023/09/09 03:58:09;;;;;;;5.63;3.30;;;;;;;15.57;100.00;101287.28;5083142;28;20532;-71
2023/09/09 04:00:37;;;;;;;7.37;3.90;;;;;;;15.56;100.00;101290.34;5084112;28;20433;-71
2023/09/09 04:03:04;;;;;;;7.10;3.67;;;;;;;15.52;100.00;101295.63;5083209;28;20472;-71
2023/09/09 04:05:31;;;;;;;7.97;3.90;;;;;;;15.52;100.00;101289.34;5082866;28;20468;-71
2023/09/09 04:08:03;;;;;;;9.93;3.80;;;;;;;15.50;100.00;101297.09;5080883;28;20472;-71
2023/09/09 04:10:29;;;;;;;5.80;3.40;;;;;;;15.51;100.00;101288.56;5079341;28;20456;-71
2023/09/09 04:12:56;;;;;;;6.60;3.47;;;;;;;15.46;100.00;101291.44;5080075;28;20568;-71
2023/09/09 04:15:24;;;;;;;8.53;3.57;;;;;;;15.50;100.00;101291.63;5081255;28;20441;-71
2023/09/09 04:17:51;;;;;;;7.20;3.50;;;;;;;15.43;100.00;101297.53;5080988;28;20537;-71
2023/09/09 04:20:17;;;;;;;6.90;3.70;;;;;;;15.45;100.00;101295.28;5082078;28;20454;-71
2023/09/09 04:22:44;;;;;;;8.03;4.03;;;;;;;15.41;100.00;101288.84;5081854;28;20809;-71
2023/09/09 04:25:11;;;;;;;5.63;3.10;;;;;;;15.32;99.18;101294.28;5082018;28;20855;-71
2023/09/09 04:27:37;;;;;;;5.60;3.00;;;;;;;15.28;99.01;101297.97;5083554;28;20461;-71
2023/09/09 04:30:04;;;;;;;6.33;3.67;;;;;;;15.24;100.00;101299.72;5079406;28;20477;-71
2023/09/09 04:32:34;;;;;;;8.70;3.40;;;;;;;15.26;100.00;101283.81;5076710;28;20512;-73
2023/09/09 04:35:01;;;;;;;5.67;3.30;;;;;;;15.25;100.00;101291.19;5078857;28;20932;-71
2023/09/09 04:37:30;;;;;;;6.30;3.30;;;;;;;15.29;100.00;101281.25;5081666;28;20453;-71
2023/09/09 04:39:57;;;;;;;6.27;3.20;;;;;;;15.29;100.00;101288.66;5085769;28;20932;-71
2023/09/09 04:42:23;;;;;;;6.37;3.13;;;;;;;15.30;100.00;101285.59;5085611;28;20445;-71
2023/09/09 04:44:50;;;;;;;6.37;4.23;;;;;;;15.33;100.00;101290.44;5085739;28;20465;-71
2023/09/09 04:47:17;;;;;;;7.30;3.93;;;;;;;15.34;100.00;101289.31;5086434;28;20977;-71
2023/09/09 04:49:45;;;;;;;8.37;4.00;;;;;;;15.28;100.00;101282.38;5085221;28;20471;-71
2023/09/09 04:52:12;;;;;;;6.40;3.77;;;;;;;15.26;100.00;101290.06;5086259;28;20481;-71
2023/09/09 04:54:38;;;;;;;7.27;3.63;;;;;;;15.29;100.00;101292.19;5086745;28;20979;-71
2023/09/09 04:57:05;;;;;;;6.17;3.27;;;;;;;15.33;100.00;101287.69;5085772;28;20481;-71
2023/09/09 04:59:33;;;;;;;6.40;3.40;;;;;;;15.35;100.00;101290.09;5086679;28;20476;-71
2023/09/09 05:02:00;;;;;;;5.23;3.30;;;;;;;15.38;100.00;101292.22;5086120;28;20447;-71
2023/09/09 05:04:26;;;;;;;6.03;3.20;;;;;;;15.41;100.00;101291.59;5086510;28;20461;-71
2023/09/09 05:06:54;;;;;;;6.50;3.33;;;;;;;15.41;100.00;101288.06;5084150;28;20508;-71
2023/09/09 05:09:21;;;;;;;6.97;3.83;;;;;;;15.43;100.00;101291.25;5085462;28;20519;-71
2023/09/09 05:11:48;;;;;;;5.83;3.27;;;;;;;15.42;100.00;101295.91;5085109;28;20481;-71
2023/09/09 05:14:14;;;;;;;6.80;3.50;;;;;;;15.43;100.00;101283.88;5083929;28;20461;-72
2023/09/09 05:16:41;;;;;;;6.33;3.10;;;;;;;15.50;100.00;101286.16;5086179;28;20485;-72
2023/09/09 05:19:08;;;;;;;6.60;3.80;;;;;;;15.50;100.00;101286.97;5085309;28;20484;-72
2023/09/09 05:21:34;;;;;;;5.70;3.37;;;;;;;15.53;100.00;101296.41;5088022;28;20473;-71
2023/09/09 05:24:02;;;;;;;7.17;3.73;;;;;;;15.62;100.00;101289.06;5088838;28;20920;-71
2023/09/09 05:26:30;;;;;;;7.33;3.70;;;;;;;15.67;100.00;101290.88;5089485;28;20454;-72
2023/09/09 05:28:56;;;;;;;6.90;3.37;;;;;;;15.73;100.00;101284.16;5087694;28;20472;-74
2023/09/09 05:31:23;;;;;;;4.77;2.80;;;;;;;15.81;100.00;101297.81;5078639;28;20929;-74
2023/09/09 05:33:50;;;;;;;6.10;3.87;;;;;;;15.88;100.00;101300.06;5083600;28;20537;-73
2023/09/09 05:36:16;;;;;;;5.43;3.83;;;;;;;15.95;100.00;101294.16;5081240;28;20489;-73
2023/09/09 05:38:43;;;;;;;5.20;3.10;;;;;;;15.98;100.00;101299.78;5078449;28;20441;-70
2023/09/09 05:41:11;;;;;;;6.03;3.23;;;;;;;16.07;100.00;101294.28;5079169;28;20502;-70
2023/09/09 05:43:37;;;;;;;5.43;3.47;;;;;;;16.13;100.00;101293.03;5077259;28;20961;-71
2023/09/09 05:46:05;;;;;;;5.83;3.20;;;;;;;16.23;100.00;101289.16;5075269;28;20722;-71
2023/09/09 05:48:32;;;;;;;7.20;3.70;;;;;;;16.35;100.00;101290.13;5075311;28;20929;-71
2023/09/09 05:50:59;;;;;;;5.53;3.63;;;;;;;16.48;100.00;101293.03;5074466;28;20540;-71
2023/09/09 05:53:26;;;;;;;8.20;3.57;;;;;;;16.61;100.00;101292.06;5080245;22;20548;-74
2023/09/09 05:55:52;;;;;;;5.40;3.50;;;;;;;16.72;100.00;101297.97;5055203;28;20469;-74
2023/09/09 05:58:20;;;;;;;6.63;3.90;;;;;;;16.81;100.00;101302.31;5055258;28;20529;-74
2023/09/09 06:00:47;;;;;;;7.93;3.93;;;;;;;16.91;100.00;101295.72;5055284;28;20945;-74
2023/09/09 06:03:14;;;;;;;7.40;3.90;;;;;;;17.00;100.00;101303.88;5054807;28;20994;-70
2023/09/09 06:05:40;;;;;;;7.20;3.60;;;;;;;17.11;100.00;101305.16;5054935;28;20546;-74
2023/09/09 06:08:07;;;;;;;6.43;4.30;;;;;;;17.19;100.00;101307.06;5055007;28;20521;-75
2023/09/09 06:10:34;;;;;;;5.30;3.20;;;;;;;17.29;100.00;101303.94;5055001;28;20446;-74
2023/09/09 06:13:00;;;;;;;5.80;3.40;;;;;;;17.38;100.00;101309.38;5054859;28;20518;-74
2023/09/09 06:15:28;;;;;;;7.20;3.43;;;;;;;17.48;100.00;101308.19;5054596;28;20466;-70
2023/09/09 06:17:57;;;;;;;7.43;3.93;;;;;;;17.53;100.00;101305.28;5054788;28;20797;-74
2023/09/09 06:20:23;;;;;;;10.30;3.80;;;;;;;17.64;100.00;101314.75;5054420;28;20544;-74
2023/09/09 06:22:50;;;;;;;5.53;3.27;;;;;;;17.71;100.00;101315.03;5054736;28;20544;-74
2023/09/09 06:25:17;;;;;;;7.70;3.33;;;;;;;17.79;100.00;101308.69;5054608;28;20561;-74
2023/09/09 06:27:44;;;;;;;9.20;5.27;;;;;;;17.85;100.00;101318.34;5054496;28;20568;-74
2023/09/09 06:30:11;;;;;;;8.50;4.83;;;;;;;17.93;100.00;101319.44;5054593;28;20434;-74
2023/09/09 06:32:39;;;;;;;10.17;6.03;;;;;;;17.99;100.00;101318.09;5054506;28;20474;-75
2023/09/09 06:35:07;;;;;;;9.33;6.00;;;;;;;18.07;100.00;101324.66;5054683;28;20629;-74
2023/09/09 06:37:33;;;;;;;10.53;6.83;;;;;;;18.19;100.00;101330.19;5054392;28;20463;-74
2023/09/09 06:40:00;;;;;;;8.60;5.00;;;;;;;18.29;100.00;101318.84;5054404;28;20533;-75
2023/09/09 06:42:27;;;;;;;14.40;5.93;;;;;;;18.41;100.00;101335.34;5054598;28;20434;-75
2023/09/09 06:44:53;;;;;;;8.13;4.00;;;;;;;18.52;100.00;101329.47;5054387;28;20484;-74
2023/09/09 06:47:20;;;;;;;13.83;7.23;;;;;;;18.61;100.00;101332.94;5053974;28;20504;-74
2023/09/09 06:49:48;;;;;;;11.73;7.00;;;;;;;18.77;100.00;101331.19;5054581;28;20529;-74
2023/09/09 06:52:15;;;;;;;12.67;6.47;;;;;;;18.93;100.00;101333.28;5054109;28;20570;-74
2023/09/09 06:54:43;;;;;;;11.90;6.30;;;;;;;18.99;100.00;101335.50;5053731;28;20446;-74
2023/09/09 06:57:10;;;;;;;10.23;5.90;;;;;;;19.08;100.00;101338.94;5054036;28;20558;-74
2023/09/09 06:59:37;;;;;;;8.90;5.97;;;;;;;19.25;100.00;101345.38;5054096;28;20450;-74
2023/09/09 07:02:05;;;;;;;9.40;5.70;;;;;;;19.37;100.00;101348.94;5053962;28;20434;-74
2023/09/09 07:04:32;;;;;;;11.30;6.47;;;;;;;19.46;99.33;101340.59;5054038;28;20446;-74
2023/09/09 07:07:00;;;;;;;11.20;5.87;;;;;;;19.56;99.10;101348.38;5053615;28;20519;-74
2023/09/09 07:09:27;;;;;;;10.90;5.57;;;;;;;19.66;98.22;101349.91;5053886;28;20450;-74
2023/09/09 07:11:53;;;;;;;8.30;5.00;;;;;;;19.76;97.76;101349.44;5053458;28;20987;-73
2023/09/09 07:14:20;;;;;;;9.03;4.90;;;;;;;19.83;97.41;101349.69;5053928;28;20521;-74
2023/09/09 07:16:47;;;;;;;9.00;5.63;;;;;;;19.86;96.66;101350.91;5053688;28;20548;-73
2023/09/09 07:19:13;;;;;;;9.17;5.07;;;;;;;19.95;96.44;101346.09;5053744;28;20443;-73
2023/09/09 07:21:40;;;;;;;8.50;4.77;;;;;;;20.08;95.27;101349.63;5053714;28;20434;-69
2023/09/09 07:24:08;;;;;;;9.20;5.00;;;;;;;20.20;94.01;101346.06;5053644;28;20517;-68
2023/09/09 07:26:35;;;;;;;7.47;4.60;;;;;;;20.33;93.03;101339.38;5053580;28;20493;-69
2023/09/09 07:29:03;;;;;;;9.50;5.17;;;;;;;20.43;92.52;101344.38;5053274;28;20473;-69
2023/09/09 07:31:29;;;;;;;8.23;4.73;;;;;;;20.54;92.81;101341.94;5053596;28;20523;-72
2023/09/09 07:33:56;;;;;;;8.03;5.00;;;;;;;20.65;91.97;101346.63;5053476;28;20489;-72
2023/09/09 07:36:23;;;;;;;7.73;4.77;;;;;;;20.83;89.80;101347.09;5053488;28;20560;-71
2023/09/09 07:38:51;;;;;;;7.97;4.50;;;;;;;21.02;86.83;101342.88;5053494;28;20440;-70
2023/09/09 07:41:19;;;;;;;11.30;5.10;;;;;;;21.14;86.63;101343.59;5053189;28;20853;-71
2023/09/09 07:43:47;;;;;;;8.30;5.00;;;;;;;21.20;87.10;101337.81;5053073;28;20868;-73
2023/09/09 07:46:14;;;;;;;7.70;4.57;;;;;;;21.26;86.42;101341.94;5053003;28;20841;-72
2023/09/09 07:48:41;;;;;;;6.07;3.37;;;;;;;21.30;84.64;101343.63;5053101;28;20453;-71
2023/09/09 07:51:08;;;;;;;10.87;4.57;;;;;;;21.42;82.91;101346.28;5053127;28;20443;-70
2023/09/09 07:53:35;;;;;;;9.57;3.80;;;;;;;21.50;81.84;101352.00;5052987;28;20494;-72
2023/09/09 07:56:01;;;;;;;7.03;3.17;;;;;;;21.53;82.42;101352.09;5053302;28;20492;-73
2023/09/09 07:58:29;;;;;;;4.13;1.97;;;;;;;21.56;82.35;101351.38;5053408;28;20525;-72
2023/09/09 08:00:59;;;;;;;5.40;3.00;;;;;;;21.60;82.53;101352.28;5053437;28;20517;-72
2023/09/09 08:03:26;;;;;;;4.30;2.43;;;;;;;21.64;81.90;101346.81;5053346;28;20437;-70
2023/09/09 08:05:55;;;;;;;4.53;2.40;;;;;;;21.71;81.25;101357.22;5052844;28;20541;-70
2023/09/09 08:08:21;;;;;;;6.67;2.80;;;;;;;21.78;81.75;101354.63;5052984;28;20965;-70
2023/09/09 08:10:48;;;;;;;4.77;2.30;;;;;;;21.88;81.53;101351.34;5053241;28;20470;-70
2023/09/09 08:13:15;;;;;;;4.33;2.07;;;;;;;21.96;80.66;101349.50;5053807;28;20482;-70
2023/09/09 08:15:43;;;;;;;5.40;2.50;;;;;;;22.12;79.29;101353.06;5057125;28;20470;-70
2023/09/09 08:18:09;;;;;;;4.30;2.40;;;;;;;22.23;79.22;101351.34;5056808;28;20442;-70
2023/09/09 08:20:36;;;;;;;5.33;2.53;;;;;;;22.31;78.67;101347.59;5056723;28;20494;-70
2023/09/09 08:23:03;;;;;;;6.87;3.00;;;;;;;22.41;77.69;101347.00;5056672;28;20434;-70
2023/09/09 08:25:32;;;;;;;7.53;2.60;;;;;;;22.50;78.11;101349.53;5056871;28;20461;-70
2023/09/09 08:27:59;;;;;;;4.90;2.50;;;;;;;22.60;77.05;101348.16;5056920;28;20540;-70
2023/09/09 08:30:26;;;;;;;5.03;2.53;;;;;;;22.69;76.43;101345.16;5057045;28;20474;-70
2023/09/09 08:32:54;;;;;;;3.87;2.13;;;;;;;22.80;75.73;101352.50;5056778;28;20569;-70
2023/09/09 08:35:21;;;;;;;5.10;2.47;;;;;;;22.87;75.59;101344.34;5057029;28;20481;-70
2023/09/09 08:37:47;;;;;;;4.50;2.87;;;;;;;22.98;76.08;101349.31;5056401;28;20500;-70
2023/09/09 08:40:14;;;;;;;8.60;2.50;;;;;;;23.11;74.67;101356.25;5056324;28;20818;-70
2023/09/09 08:42:58;;;;;;;3.80;1.93;;;;;;;23.20;73.34;101343.00;5056462;28;20938;-71
2023/09/09 08:45:33;;;;;;;5.10;2.37;;;;;;;23.33;73.69;101349.13;5056573;28;20427;-69
2023/09/09 08:48:07;;;;;;;4.37;2.23;;;;;;;23.44;70.87;101360.38;5056543;28;20426;-69
2023/09/09 08:50:38;;;;;;;5.40;2.57;;;;;;;23.64;68.75;101361.88;5056586;28;20431;-70
2023/09/09 08:53:06;;;;;;;3.93;2.23;;;;;;;23.76;69.47;101353.41;5055954;28;21001;-70
2023/09/09 08:55:33;;;;;;;4.53;2.00;;;;;;;23.80;68.28;101359.78;5056074;28;20910;-70
2023/09/09 08:58:00;;;;;;;3.70;1.90;;;;;;;23.92;66.52;101351.28;5056350;28;20509;-70
2023/09/09 09:00:33;;;;;;;4.77;1.90;;;;;;;24.07;66.32;101355.03;5056363;28;20516;-70
2023/09/09 09:03:01;;;;;;;4.27;2.00;;;;;;;24.16;66.68;101351.97;5055971;28;20910;-70
2023/09/09 09:05:28;;;;;;;3.40;1.70;;;;;;;24.24;66.83;101350.13;5056189;28;20438;-70
2023/09/09 09:07:55;;;;;;;4.67;2.17;;;;;;;24.34;65.38;101349.44;5056194;28;20874;-70
2023/09/09 09:10:23;;;;;;;6.13;2.40;;;;;;;24.50;65.63;101349.28;5056179;28;20504;-70
2023/09/09 09:12:50;;;;;;;4.23;2.53;;;;;;;24.65;64.37;101348.28;5055646;28;21015;-70
2023/09/09 09:15:17;;;;;;;4.40;2.00;;;;;;;24.87;61.60;101358.41;5056096;28;20526;-70
2023/09/09 09:17:44;;;;;;;3.63;1.87;;;;;;;25.01;60.56;101359.72;5055602;28;21016;-71
2023/09/09 09:20:25;;;;;;;4.40;2.20;;;;;;;25.11;61.27;101359.09;5055907;28;20442;-70
2023/09/09 09:22:52;;;;;;;3.87;2.23;;;;;;;25.33;58.67;101352.56;5055990;28;20418;-70
2023/09/09 09:25:20;;;;;;;4.67;2.50;;;;;;;25.47;59.98;101353.84;5054547;28;20529;-70
2023/09/09 09:27:47;;;;;;;4.40;1.77;;;;;;;25.53;54.98;101346.75;5056094;28;20450;-72
2023/09/09 09:30:14;;;;;;;4.10;2.13;;;;;;;25.69;56.43;101349.25;5056062;28;20558;-70
2023/09/09 09:32:41;;;;;;;5.33;2.27;;;;;;;25.75;56.55;101358.81;5056037;28;20521;-71
2023/09/09 09:35:24;;;;;;;3.90;1.83;;;;;;;25.84;57.18;101356.50;5056039;28;20499;-69
2023/09/09 09:37:52;;;;;;;4.10;1.93;;;;;;;25.88;57.73;101352.59;5055381;28;20513;-74
2023/09/09 09:40:19;;;;;;;4.27;2.10;;;;;;;25.85;59.55;101350.59;5055576;28;20438;-70
2023/09/09 09:42:46;;;;;;;3.93;2.37;;;;;;;25.85;59.81;101347.81;5055575;28;20680;-70
2023/09/09 09:45:14;;;;;;;4.77;2.50;;;;;;;25.93;58.79;101348.63;5055530;28;20474;-70
2023/09/09 09:47:44;;;;;;;5.03;2.53;;;;;;;25.94;57.75;101346.66;5055254;28;20536;-70
2023/09/09 09:50:22;;;;;;;3.80;1.90;;;;;;;26.16;53.66;101345.59;5055400;28;20430;-70
2023/09/09 09:52:57;;;;;;;3.60;1.90;;;;;;;26.28;54.69;101342.47;5055238;28;20472;-70
2023/09/09 09:55:24;;;;;;;3.90;2.33;;;;;;;26.39;53.81;101350.88;5055026;28;20436;-70
2023/09/09 09:57:54;;;;;;;5.30;2.40;;;;;;;26.56;52.28;101349.34;5055403;28;20531;-70
2023/09/09 10:00:21;;;;;;;4.10;2.00;;;;;;;26.71;53.03;101341.88;5055320;28;20861;-70
2023/09/09 10:02:53;;;;;;;3.40;1.77;;;;;;;26.76;51.35;101347.84;5055772;28;20508;-70
2023/09/09 10:05:22;;;;;;;4.93;2.57;;;;;;;26.79;52.47;101338.72;5054831;28;20449;-70
2023/09/09 10:07:52;;;;;;;3.00;1.50;;;;;;;27.01;51.13;101342.34;5055165;28;20439;-70
2023/09/09 10:10:22;;;;;;;3.90;2.47;;;;;;;27.09;52.25;101340.38;5055128;28;20462;-70
2023/09/09 10:12:52;;;;;;;5.07;2.80;;;;;;;27.09;53.17;101340.38;5054887;28;20441;-70
2023/09/09 10:15:21;;;;;;;4.40;2.23;;;;;;;26.95;53.50;101337.53;5054871;28;20446;-70
2023/09/09 10:17:49;;;;;;;5.90;1.73;;;;;;;26.97;51.41;101330.41;5054950;28;20536;-70
2023/09/09 10:20:17;;;;;;;5.33;2.60;;;;;;;27.09;49.52;101329.22;5055146;28;20537;-70
2023/09/09 10:22:46;;;;;;;6.60;2.30;;;;;;;27.14;51.98;101320.53;5054459;28;20438;-70
2023/09/09 10:25:14;;;;;;;4.20;2.40;;;;;;;27.26;50.16;101327.66;5054824;28;20442;-70
2023/09/09 10:27:42;;;;;;;5.93;2.87;;;;;;;27.33;51.57;101325.69;5054267;28;20545;-70
2023/09/09 10:30:09;;;;;;;6.43;2.47;;;;;;;27.37;51.18;101328.47;5054888;28;20466;-70
2023/09/09 10:32:37;;;;;;;4.23;2.67;;;;;;;27.35;52.09;101326.06;5054551;28;20453;-70
2023/09/09 10:35:05;;;;;;;3.50;1.90;;;;;;;27.42;51.28;101325.28;5054385;28;20525;-70
2023/09/09 10:37:34;;;;;;;4.00;1.73;;;;;;;27.63;50.13;101330.03;5054278;28;20462;-70
2023/09/09 10:40:02;;;;;;;3.63;1.87;;;;;;;27.75;49.83;101328.84;5054719;28;20449;-70
2023/09/09 10:42:31;;;;;;;3.50;1.80;;;;;;;27.92;47.87;101328.00;5054410;28;20433;-70
2023/09/09 10:45:28;;;;;;;4.20;1.97;;;;;;;28.24;47.77;101327.09;5054401;28;20434;-70
2023/09/09 10:47:57;;;;;;;6.10;3.20;;;;;;;28.38;46.48;101322.28;5053956;28;20425;-71
2023/09/09 10:50:38;;;;;;;4.33;2.50;;;;;;;28.60;44.80;101330.56;5053999;28;20922;-70
2023/09/09 10:53:15;;;;;;;3.07;1.70;;;;;;;28.71;45.13;101333.25;5053822;28;20446;-70
2023/09/09 10:55:42;;;;;;;4.17;2.37;;;;;;;28.73;45.24;101320.50;5053818;28;21036;-70
2023/09/09 10:58:10;;;;;;;3.33;1.70;;;;;;;28.79;43.27;101326.44;5054115;28;20526;-70
2023/09/09 11:00:40;;;;;;;3.10;1.63;;;;;;;28.89;43.92;101331.16;5053751;28;20484;-70
2023/09/09 11:03:11;;;;;;;3.70;1.93;;;;;;;28.98;44.26;101319.56;5053721;28;20866;-70
2023/09/09 11:06:03;;;;;;;5.13;2.10;;;;;;;29.01;44.32;101310.38;5053719;28;20450;-70
2023/09/09 11:08:44;;;;;;;3.90;1.97;;;;;;;29.28;42.29;101316.13;5053694;28;20525;-70
2023/09/09 11:11:13;;;;;;;3.37;1.60;;;;;;;29.55;40.75;101327.47;5053868;28;20422;-69
2023/09/09 11:13:44;;;;;;;3.67;1.80;;;;;;;29.95;41.26;101322.28;5053417;28;20482;-70
2023/09/09 11:16:28;;;;;;;3.70;1.77;;;;;;;30.51;37.79;101320.00;5053797;28;20493;-72
2023/09/09 11:18:56;;;;;;;4.07;2.03;;;;;;;31.10;37.65;101311.94;5053697;28;20533;-72
2023/09/09 11:21:24;;;;;;;3.67;1.47;;;;;;;31.51;36.26;101330.44;5053711;28;20532;-72
2023/09/09 11:23:51;;;;;;;4.60;1.93;;;;;;;31.78;35.47;101318.34;5053672;28;20438;-71